Terminal Aerodrome Forecast
Issued by NWS

Home | Current Version | Previous Version | Text Only | Print | Product List | Glossary On
Versions: 1 2 3 4 5 6 7 8 9 10 11 12 13
000
FTUS44 KBMX 101600 AAA
TAFTOI
TAF AMD
KTOI 101619Z 1016/1112 27007KT P6SM VCTS SCT040CB BKN080
      TEMPO 1016/1017 3SM RA BKN040
     FM110100 30003KT P6SM BKN100=

USA.gov is the U.S. government's official web portal to all federal, state and local government web resources and services.